Time,TemperatureF,DewpointF,PressureIn,WindDirection,WindDirectionDegrees,WindSpeedMPH,WindSpeedGustMPH,Humidity,HourlyPrecipIn,Conditions,Clouds,dailyrainin,SoftwareType,DateUTC
2013-10-22 00:07:00,54.4,51.0,29.98,SSE,148,0.0,0.0,89,0.00,,,0.00,weatherlink.com 1.10,2013-10-22 04:07:00,
2013-10-22 00:22:00,54.2,51.0,29.98,SSE,148,0.0,0.0,89,0.00,,,0.00,weatherlink.com 1.10,2013-10-22 04:22:00,
2013-10-22 00:37:00,55.2,52.0,29.97,SSE,148,0.0,1.0,88,0.00,,,0.00,weatherlink.com 1.10,2013-10-22 04:37:00,
2013-10-22 00:52:00,56.9,53.0,29.96,SSE,148,0.0,1.0,85,0.00,,,0.00,weatherlink.com 1.10,2013-10-22 04:52:00,
2013-10-22 01:07:00,57.6,53.0,29.95,East,98,1.0,2.0,84,0.00,,,0.00,weatherlink.com 1.10,2013-10-22 05:07:00,
2013-10-22 01:22:00,57.8,53.0,29.95,East,98,0.0,0.0,83,0.00,,,0.00,weatherlink.com 1.10,2013-10-22 05:22:00,
2013-10-22 01:37:00,57.6,53.0,29.95,East,98,0.0,0.0,84,0.00,,,0.00,weatherlink.com 1.10,2013-10-22 05:37:00,
2013-10-22 01:52:00,57.2,53.0,29.94,East,98,0.0,0.0,85,0.00,,,0.00,weatherlink.com 1.10,2013-10-22 05:52:00,
2013-10-22 02:07:00,56.9,53.0,29.95,East,98,0.0,0.0,85,0.00,,,0.00,weatherlink.com 1.10,2013-10-22 06:07:00,
2013-10-22 02:22:00,57.1,52.0,29.94,East,98,0.0,1.0,82,0.00,,,0.00,weatherlink.com 1.10,2013-10-22 06:22:00,
2013-10-22 02:37:00,57.8,52.0,29.94,ESE,120,0.0,2.0,80,0.00,,,0.00,weatherlink.com 1.10,2013-10-22 06:37:00,
2013-10-22 02:52:00,58.0,52.0,29.93,ESE,120,0.0,1.0,79,0.00,,,0.00,weatherlink.com 1.10,2013-10-22 06:52:00,
2013-10-22 03:07:00,58.1,50.0,29.93,SSW,200,1.0,3.0,75,0.00,,,0.00,weatherlink.com 1.10,2013-10-22 07:07:00,
2013-10-22 03:22:00,58.4,50.0,29.92,SSW,200,1.0,2.0,73,0.00,,,0.00,weatherlink.com 1.10,2013-10-22 07:22:00,
2013-10-22 03:38:00,58.5,50.0,29.92,SSE,147,0.0,2.0,73,0.00,,,0.00,weatherlink.com 1.10,2013-10-22 07:38:00,
2013-10-22 03:53:00,58.3,50.0,29.91,SSE,165,0.0,1.0,73,0.00,,,0.00,weatherlink.com 1.10,2013-10-22 07:53:00,
2013-10-22 04:08:00,58.2,50.0,29.91,SSE,167,0.0,4.0,73,0.00,,,0.00,weatherlink.com 1.10,2013-10-22 08:08:00,
2013-10-22 04:23:00,58.2,50.0,29.91,South,176,0.0,3.0,73,0.00,,,0.00,weatherlink.com 1.10,2013-10-22 08:23:00,
2013-10-22 04:38:00,58.1,49.0,29.91,SSE,165,0.0,3.0,73,0.00,,,0.00,weatherlink.com 1.10,2013-10-22 08:38:00,
2013-10-22 04:53:00,58.0,50.0,29.91,SSE,159,1.0,2.0,74,0.00,,,0.00,weatherlink.com 1.10,2013-10-22 08:53:00,
2013-10-22 05:08:00,57.9,49.0,29.90,SSE,167,0.0,3.0,73,0.00,,,0.00,weatherlink.com 1.10,2013-10-22 09:08:00,
2013-10-22 05:23:00,57.9,50.0,29.89,South,171,0.0,2.0,74,0.00,,,0.00,weatherlink.com 1.10,2013-10-22 09:23:00,
2013-10-22 05:38:00,57.7,49.0,29.89,South,171,0.0,1.0,74,0.00,,,0.00,weatherlink.com 1.10,2013-10-22 09:38:00,
2013-10-22 05:53:00,57.7,50.0,29.88,South,171,0.0,2.0,75,0.00,,,0.00,weatherlink.com 1.10,2013-10-22 09:53:00,
2013-10-22 06:08:00,57.8,50.0,29.87,SSE,167,0.0,4.0,75,0.00,,,0.00,weatherlink.com 1.10,2013-10-22 10:08:00,
2013-10-22 06:23:00,57.8,50.0,29.87,South,182,0.0,3.0,74,0.00,,,0.00,weatherlink.com 1.10,2013-10-22 10:23:00,
2013-10-22 06:38:00,57.6,49.0,29.87,SSE,154,0.0,2.0,74,0.00,,,0.00,weatherlink.com 1.10,2013-10-22 10:38:00,
2013-10-22 06:53:00,57.2,50.0,29.87,SSE,155,0.0,2.0,76,0.00,,,0.00,weatherlink.com 1.10,2013-10-22 10:53:00,
2013-10-22 07:08:00,56.8,50.0,29.86,SSE,165,0.0,2.0,77,0.00,,,0.00,weatherlink.com 1.10,2013-10-22 11:08:00,
2013-10-22 07:23:00,56.5,50.0,29.87,SSE,167,1.0,3.0,78,0.00,,,0.00,weatherlink.com 1.10,2013-10-22 11:23:00,
2013-10-22 07:38:00,56.3,50.0,29.86,South,171,0.0,2.0,78,0.00,,,0.00,weatherlink.com 1.10,2013-10-22 11:38:00,
2013-10-22 07:53:00,55.7,50.0,29.87,South,171,0.0,2.0,80,0.00,,,0.00,weatherlink.com 1.10,2013-10-22 11:53:00,
2013-10-22 08:08:00,55.1,49.0,29.86,South,171,0.0,2.0,81,0.00,,,0.00,weatherlink.com 1.10,2013-10-22 12:08:00,
2013-10-22 08:23:00,55.1,49.0,29.86,South,171,0.0,2.0,81,0.00,,,0.00,weatherlink.com 1.10,2013-10-22 12:23:00,
2013-10-22 08:38:00,55.6,50.0,29.86,South,171,0.0,1.0,81,0.00,,,0.00,weatherlink.com 1.10,2013-10-22 12:38:00,
2013-10-22 08:53:00,55.9,50.0,29.86,South,171,0.0,0.0,81,0.00,,,0.00,weatherlink.com 1.10,2013-10-22 12:53:00,
2013-10-22 09:08:00,56.8,51.0,29.87,SSW,199,0.0,3.0,81,0.00,,,0.00,weatherlink.com 1.10,2013-10-22 13:08:00,
2013-10-22 09:23:00,57.6,52.0,29.87,SSW,204,0.0,3.0,80,0.00,,,0.00,weatherlink.com 1.10,2013-10-22 13:23:00,
2013-10-22 09:38:00,57.9,51.0,29.86,SE,141,2.0,5.0,78,0.00,,,0.00,weatherlink.com 1.10,2013-10-22 13:38:00,
2013-10-22 09:53:00,58.8,52.0,29.86,ESE,108,0.0,2.0,77,0.00,,,0.00,weatherlink.com 1.10,2013-10-22 13:53:00,
2013-10-22 10:08:00,60.0,52.0,29.87,SSE,168,0.0,2.0,75,0.00,,,0.00,weatherlink.com 1.10,2013-10-22 14:08:00,
2013-10-22 10:23:00,60.8,52.0,29.87,ESE,116,1.0,3.0,74,0.00,,,0.00,weatherlink.com 1.10,2013-10-22 14:23:00,
2013-10-22 10:38:00,60.6,52.0,29.86,SW,229,1.0,2.0,74,0.00,,,0.00,weatherlink.com 1.10,2013-10-22 14:38:00,
2013-10-22 10:53:00,60.9,52.0,29.86,SE,131,0.0,2.0,73,0.00,,,0.00,weatherlink.com 1.10,2013-10-22 14:53:00,
2013-10-22 11:08:00,61.4,53.0,29.86,SE,133,0.0,2.0,73,0.00,,,0.00,weatherlink.com 1.10,2013-10-22 15:08:00,
2013-10-22 11:23:00,61.6,53.0,29.86,SE,133,0.0,1.0,74,0.00,,,0.00,weatherlink.com 1.10,2013-10-22 15:23:00,
2013-10-22 11:38:00,61.7,53.0,29.85,SE,133,0.0,1.0,73,0.00,,,0.00,weatherlink.com 1.10,2013-10-22 15:38:00,
2013-10-22 11:53:00,61.7,53.0,29.86,SSE,150,0.0,2.0,74,0.00,,,0.00,weatherlink.com 1.10,2013-10-22 15:53:00,
2013-10-22 12:08:00,62.1,53.0,29.85,South,181,0.0,1.0,71,0.00,,,0.00,weatherlink.com 1.10,2013-10-22 16:08:00,
2013-10-22 12:23:00,62.5,53.0,29.86,SW,224,0.0,1.0,71,0.00,,,0.00,weatherlink.com 1.10,2013-10-22 16:23:00,
2013-10-22 12:38:00,62.6,54.0,29.86,SW,224,0.0,1.0,73,0.00,,,0.00,weatherlink.com 1.10,2013-10-22 16:38:00,
2013-10-22 12:53:00,62.6,54.0,29.85,SW,224,0.0,2.0,73,0.00,,,0.00,weatherlink.com 1.10,2013-10-22 16:53:00,
2013-10-22 13:08:00,62.9,55.0,29.84,SSE,154,0.0,0.0,74,0.00,,,0.00,weatherlink.com 1.10,2013-10-22 17:08:00,
2013-10-22 13:23:00,62.8,55.0,29.83,SSE,154,0.0,0.0,75,0.00,,,0.00,weatherlink.com 1.10,2013-10-22 17:23:00,
2013-10-22 13:38:00,62.4,55.0,29.82,SSE,154,0.0,0.0,76,0.00,,,0.00,weatherlink.com 1.10,2013-10-22 17:38:00,
2013-10-22 13:53:00,62.3,55.0,29.82,SSE,154,0.0,0.0,76,0.00,,,0.00,weatherlink.com 1.10,2013-10-22 17:53:00,
2013-10-22 14:08:00,63.9,55.0,29.81,SSE,154,0.0,1.0,72,0.00,,,0.00,weatherlink.com 1.10,2013-10-22 18:08:00,
2013-10-22 14:23:00,64.7,53.0,29.82,WNW,290,0.0,3.0,66,0.00,,,0.00,weatherlink.com 1.10,2013-10-22 18:23:00,
2013-10-22 14:38:00,65.1,52.0,29.82,WNW,290,0.0,3.0,62,0.00,,,0.00,weatherlink.com 1.10,2013-10-22 18:38:00,
2013-10-22 14:53:00,64.4,50.0,29.83,WNW,292,1.0,3.0,60,0.00,,,0.00,weatherlink.com 1.10,2013-10-22 18:53:00,
2013-10-22 15:09:00,63.5,51.0,29.82,WNW,301,0.0,2.0,64,0.00,,,0.00,weatherlink.com 1.10,2013-10-22 19:09:00,
2013-10-22 15:24:00,63.2,52.0,29.83,WNW,301,0.0,1.0,66,0.00,,,0.00,weatherlink.com 1.10,2013-10-22 19:24:00,
2013-10-22 15:39:00,62.6,52.0,29.82,WNW,301,0.0,1.0,68,0.00,,,0.00,weatherlink.com 1.10,2013-10-22 19:39:00,
2013-10-22 15:54:00,62.5,53.0,29.82,WNW,301,0.0,1.0,70,0.00,,,0.00,weatherlink.com 1.10,2013-10-22 19:54:00,
2013-10-22 16:09:00,62.6,51.0,29.81,WNW,301,0.0,2.0,65,0.00,,,0.00,weatherlink.com 1.10,2013-10-22 20:09:00,
2013-10-22 16:24:00,62.7,51.0,29.82,WNW,301,0.0,1.0,66,0.00,,,0.00,weatherlink.com 1.10,2013-10-22 20:24:00,
2013-10-22 16:39:00,62.2,51.0,29.82,WNW,301,0.0,2.0,66,0.00,,,0.00,weatherlink.com 1.10,2013-10-22 20:39:00,
2013-10-22 16:54:00,61.9,51.0,29.82,WNW,301,1.0,2.0,67,0.00,,,0.00,weatherlink.com 1.10,2013-10-22 20:54:00,
2013-10-22 17:09:00,61.6,50.0,29.82,WNW,301,0.0,2.0,67,0.00,,,0.00,weatherlink.com 1.10,2013-10-22 21:09:00,
2013-10-22 17:24:00,61.8,51.0,29.82,WNW,301,0.0,2.0,67,0.00,,,0.00,weatherlink.com 1.10,2013-10-22 21:24:00,
2013-10-22 17:39:00,61.6,50.0,29.82,WNW,301,0.0,2.0,66,0.00,,,0.00,weatherlink.com 1.10,2013-10-22 21:39:00,
2013-10-22 17:54:00,61.0,51.0,29.83,WNW,301,0.0,0.0,70,0.00,,,0.00,weatherlink.com 1.10,2013-10-22 21:54:00,
2013-10-22 18:09:00,59.8,50.0,29.82,WNW,301,0.0,0.0,71,0.00,,,0.00,weatherlink.com 1.10,2013-10-22 22:09:00,
2013-10-22 18:24:00,58.7,50.0,29.82,WNW,301,0.0,0.0,72,0.00,,,0.00,weatherlink.com 1.10,2013-10-22 22:24:00,
2013-10-22 18:39:00,58.4,51.0,29.83,WNW,301,0.0,0.0,75,0.00,,,0.00,weatherlink.com 1.10,2013-10-22 22:39:00,
2013-10-22 18:54:00,57.5,51.0,29.83,WNW,301,0.0,0.0,79,0.00,,,0.00,weatherlink.com 1.10,2013-10-22 22:54:00,
2013-10-22 19:09:00,57.1,51.0,29.83,WNW,301,0.0,0.0,80,0.00,,,0.00,weatherlink.com 1.10,2013-10-22 23:09:00,
2013-10-22 19:24:00,56.8,51.0,29.83,WNW,301,0.0,0.0,80,0.00,,,0.00,weatherlink.com 1.10,2013-10-22 23:24:00,
2013-10-22 19:39:00,57.1,49.0,29.83,WNW,301,0.0,0.0,75,0.00,,,0.00,weatherlink.com 1.10,2013-10-22 23:39:00,
2013-10-22 19:54:00,57.4,50.0,29.84,WNW,301,0.0,1.0,76,0.00,,,0.00,weatherlink.com 1.10,2013-10-22 23:54:00,
2013-10-22 20:09:00,56.6,50.0,29.84,WNW,301,0.0,0.0,78,0.00,,,0.00,weatherlink.com 1.10,2013-10-23 00:09:00,
2013-10-22 20:24:00,56.0,50.0,29.84,WNW,301,0.0,0.0,81,0.00,,,0.00,weatherlink.com 1.10,2013-10-23 00:24:00,
2013-10-22 20:39:00,56.0,49.0,29.84,WNW,301,0.0,4.0,76,0.00,,,0.00,weatherlink.com 1.10,2013-10-23 00:39:00,
2013-10-22 20:54:00,57.4,47.0,29.84,WNW,302,0.0,2.0,68,0.00,,,0.00,weatherlink.com 1.10,2013-10-23 00:54:00,
2013-10-22 21:09:00,57.6,46.0,29.84,WNW,302,0.0,1.0,66,0.00,,,0.00,weatherlink.com 1.10,2013-10-23 01:09:00,
2013-10-22 21:24:00,57.6,47.0,29.84,WNW,302,0.0,2.0,68,0.00,,,0.00,weatherlink.com 1.10,2013-10-23 01:24:00,
2013-10-22 21:39:00,57.8,46.0,29.84,WNW,302,0.0,3.0,64,0.00,,,0.00,weatherlink.com 1.10,2013-10-23 01:39:00,
2013-10-22 21:54:00,58.1,44.0,29.84,WNW,302,0.0,3.0,60,0.00,,,0.00,weatherlink.com 1.10,2013-10-23 01:54:00,
2013-10-22 22:09:00,58.0,44.0,29.84,WNW,302,0.0,2.0,60,0.00,,,0.00,weatherlink.com 1.10,2013-10-23 02:09:00,
2013-10-22 22:24:00,57.8,42.0,29.85,WNW,302,0.0,2.0,57,0.00,,,0.00,weatherlink.com 1.10,2013-10-23 02:24:00,
2013-10-22 22:39:00,57.7,42.0,29.84,WNW,302,0.0,2.0,57,0.00,,,0.00,weatherlink.com 1.10,2013-10-23 02:39:00,
2013-10-22 22:54:00,57.4,42.0,29.84,WNW,302,0.0,1.0,56,0.00,,,0.00,weatherlink.com 1.10,2013-10-23 02:54:00,
2013-10-22 23:09:00,56.9,42.0,29.84,WNW,302,0.0,1.0,57,0.00,,,0.00,weatherlink.com 1.10,2013-10-23 03:09:00,
2013-10-22 23:24:00,56.5,43.0,29.83,WNW,302,0.0,1.0,60,0.00,,,0.00,weatherlink.com 1.10,2013-10-23 03:24:00,
2013-10-22 23:39:00,56.4,42.0,29.83,WNW,302,0.0,1.0,59,0.00,,,0.00,weatherlink.com 1.10,2013-10-23 03:39:00,
2013-10-22 23:54:00,56.5,39.0,29.83,WNW,302,0.0,2.0,53,0.00,,,0.00,weatherlink.com 1.10,2013-10-23 03:54:00,